sensor_id;sensor_type;location;lat;lon;timestamp;pressure;altitude;pressure_sealevel;temperature
24278;BMP280;12394;42.692;23.314;2023-04-15T00:02:15;94264.88;;;9.42
24278;BMP280;12394;42.692;23.314;2023-04-15T00:04:42;94272.09;;;9.34
24278;BMP280;12394;42.692;23.314;2023-04-15T00:07:07;94273.13;;;9.40
24278;BMP280;12394;42.692;23.314;2023-04-15T00:09:33;94264.75;;;9.52
24278;BMP280;12394;42.692;23.314;2023-04-15T00:11:58;94259.59;;;9.45
24278;BMP280;12394;42.692;23.314;2023-04-15T00:14:23;94256.66;;;9.43
24278;BMP280;12394;42.692;23.314;2023-04-15T00:16:49;94260.03;;;9.44
24278;BMP280;12394;42.692;23.314;2023-04-15T00:19:19;94252.13;;;9.47
24278;BMP280;12394;42.692;23.314;2023-04-15T00:21:44;94243.25;;;9.41
24278;BMP280;12394;42.692;23.314;2023-04-15T00:24:10;94243.13;;;9.52
24278;BMP280;12394;42.692;23.314;2023-04-15T00:26:35;94249.09;;;9.52
24278;BMP280;12394;42.692;23.314;2023-04-15T00:29:01;94252.00;;;9.58
24278;BMP280;12394;42.692;23.314;2023-04-15T00:31:27;94260.16;;;9.60
24278;BMP280;12394;42.692;23.314;2023-04-15T00:33:52;94258.31;;;9.83
24278;BMP280;12394;42.692;23.314;2023-04-15T00:36:17;94248.53;;;9.64
24278;BMP280;12394;42.692;23.314;2023-04-15T00:38:43;94267.78;;;9.74
24278;BMP280;12394;42.692;23.314;2023-04-15T00:41:09;94270.50;;;9.67
24278;BMP280;12394;42.692;23.314;2023-04-15T00:43:35;94268.22;;;9.69
24278;BMP280;12394;42.692;23.314;2023-04-15T00:46:03;94265.56;;;9.72
24278;BMP280;12394;42.692;23.314;2023-04-15T00:48:29;94260.56;;;9.81
24278;BMP280;12394;42.692;23.314;2023-04-15T00:50:54;94259.22;;;9.73
24278;BMP280;12394;42.692;23.314;2023-04-15T00:53:20;94259.88;;;9.77
24278;BMP280;12394;42.692;23.314;2023-04-15T00:55:45;94245.13;;;9.67
24278;BMP280;12394;42.692;23.314;2023-04-15T00:58:11;94260.56;;;9.81
24278;BMP280;12394;42.692;23.314;2023-04-15T01:00:36;94246.56;;;9.72
24278;BMP280;12394;42.692;23.314;2023-04-15T01:03:02;94254.66;;;9.77
24278;BMP280;12394;42.692;23.314;2023-04-15T01:05:28;94269.66;;;9.73
24278;BMP280;12394;42.692;23.314;2023-04-15T01:07:54;94275.41;;;9.88
24278;BMP280;12394;42.692;23.314;2023-04-15T01:10:20;94270.44;;;9.70
24278;BMP280;12394;42.692;23.314;2023-04-15T01:12:46;94278.63;;;9.72
24278;BMP280;12394;42.692;23.314;2023-04-15T01:15:12;94275.47;;;9.85
24278;BMP280;12394;42.692;23.314;2023-04-15T01:17:38;94268.63;;;9.91
24278;BMP280;12394;42.692;23.314;2023-04-15T01:20:04;94258.06;;;9.74
24278;BMP280;12394;42.692;23.314;2023-04-15T01:22:32;94249.56;;;9.70
24278;BMP280;12394;42.692;23.314;2023-04-15T01:25:06;94250.84;;;9.59
24278;BMP280;12394;42.692;23.314;2023-04-15T01:27:34;94243.19;;;9.48
24278;BMP280;12394;42.692;23.314;2023-04-15T01:30:01;94261.75;;;9.54
24278;BMP280;12394;42.692;23.314;2023-04-15T01:32:29;94246.91;;;9.47
24278;BMP280;12394;42.692;23.314;2023-04-15T01:34:55;94258.78;;;9.52
24278;BMP280;12394;42.692;23.314;2023-04-15T01:37:20;94250.06;;;9.35
24278;BMP280;12394;42.692;23.314;2023-04-15T01:39:46;94244.88;;;9.31
24278;BMP280;12394;42.692;23.314;2023-04-15T01:42:11;94258.25;;;9.37
24278;BMP280;12394;42.692;23.314;2023-04-15T01:44:37;94254.84;;;9.40
24278;BMP280;12394;42.692;23.314;2023-04-15T01:47:02;94256.06;;;9.32
24278;BMP280;12394;42.692;23.314;2023-04-15T01:49:27;94259.84;;;9.31
24278;BMP280;12394;42.692;23.314;2023-04-15T01:51:53;94250.59;;;9.23
24278;BMP280;12394;42.692;23.314;2023-04-15T01:54:19;94274.69;;;9.34
24278;BMP280;12394;42.692;23.314;2023-04-15T01:56:44;94276.94;;;9.32
24278;BMP280;12394;42.692;23.314;2023-04-15T01:59:09;94258.53;;;9.16
24278;BMP280;12394;42.692;23.314;2023-04-15T02:01:35;94282.69;;;9.20
24278;BMP280;12394;42.692;23.314;2023-04-15T02:04:01;94234.88;;;9.00
24278;BMP280;12394;42.692;23.314;2023-04-15T02:06:26;94288.66;;;9.20
24278;BMP280;12394;42.692;23.314;2023-04-15T02:08:52;94282.31;;;9.21
24278;BMP280;12394;42.692;23.314;2023-04-15T02:11:17;94278.91;;;9.24
24278;BMP280;12394;42.692;23.314;2023-04-15T02:13:44;94277.06;;;9.25
24278;BMP280;12394;42.692;23.314;2023-04-15T02:16:18;94264.44;;;9.20
24278;BMP280;12394;42.692;23.314;2023-04-15T02:18:45;94273.69;;;9.24
24278;BMP280;12394;42.692;23.314;2023-04-15T02:21:11;94247.44;;;9.08
24278;BMP280;12394;42.692;23.314;2023-04-15T02:23:37;94278.97;;;9.21
24278;BMP280;12394;42.692;23.314;2023-04-15T02:26:02;94260.53;;;9.05
24278;BMP280;12394;42.692;23.314;2023-04-15T02:28:27;94267.00;;;8.93
24278;BMP280;12394;42.692;23.314;2023-04-15T02:30:53;94262.69;;;8.79
24278;BMP280;12394;42.692;23.314;2023-04-15T02:33:21;94268.34;;;8.74
24278;BMP280;12394;42.692;23.314;2023-04-15T02:35:46;94257.72;;;8.58
24278;BMP280;12394;42.692;23.314;2023-04-15T02:38:12;94259.28;;;8.52
24278;BMP280;12394;42.692;23.314;2023-04-15T02:40:38;94275.63;;;8.56
24278;BMP280;12394;42.692;23.314;2023-04-15T02:43:04;94285.38;;;8.45
24278;BMP280;12394;42.692;23.314;2023-04-15T02:45:31;94284.72;;;8.37
24278;BMP280;12394;42.692;23.314;2023-04-15T02:47:57;94283.72;;;8.24
24278;BMP280;12394;42.692;23.314;2023-04-15T02:50:22;94270.06;;;8.10
24278;BMP280;12394;42.692;23.314;2023-04-15T02:52:49;94275.31;;;8.06
24278;BMP280;12394;42.692;23.314;2023-04-15T02:55:15;94280.56;;;8.02
24278;BMP280;12394;42.692;23.314;2023-04-15T02:57:42;94285.00;;;8.02
24278;BMP280;12394;42.692;23.314;2023-04-15T03:02:50;94278.03;;;7.92
24278;BMP280;12394;42.692;23.314;2023-04-15T03:05:21;94287.03;;;7.84
24278;BMP280;12394;42.692;23.314;2023-04-15T03:07:50;94277.44;;;7.70
24278;BMP280;12394;42.692;23.314;2023-04-15T03:10:16;94299.03;;;7.64
24278;BMP280;12394;42.692;23.314;2023-04-15T03:12:41;94278.75;;;7.41
24278;BMP280;12394;42.692;23.314;2023-04-15T03:15:07;94300.69;;;7.36
24278;BMP280;12394;42.692;23.314;2023-04-15T03:17:33;94294.41;;;7.34
24278;BMP280;12394;42.692;23.314;2023-04-15T03:20:01;94297.38;;;7.36
24278;BMP280;12394;42.692;23.314;2023-04-15T03:22:27;94286.28;;;7.25
24278;BMP280;12394;42.692;23.314;2023-04-15T03:24:52;94301.09;;;7.35
24278;BMP280;12394;42.692;23.314;2023-04-15T03:27:17;94309.63;;;7.32
24278;BMP280;12394;42.692;23.314;2023-04-15T03:29:43;94277.81;;;7.06
24278;BMP280;12394;42.692;23.314;2023-04-15T03:32:08;94298.94;;;7.15
24278;BMP280;12394;42.692;23.314;2023-04-15T03:34:34;94311.53;;;7.28
24278;BMP280;12394;42.692;23.314;2023-04-15T03:36:59;94321.19;;;7.31
24278;BMP280;12394;42.692;23.314;2023-04-15T03:39:25;94327.47;;;7.33
24278;BMP280;12394;42.692;23.314;2023-04-15T03:41:50;94329.38;;;7.29
24278;BMP280;12394;42.692;23.314;2023-04-15T03:44:15;94340.50;;;7.30
24278;BMP280;12394;42.692;23.314;2023-04-15T03:46:41;94350.91;;;7.33
24278;BMP280;12394;42.692;23.314;2023-04-15T03:49:06;94333.50;;;7.20
24278;BMP280;12394;42.692;23.314;2023-04-15T03:51:32;94347.22;;;7.24
24278;BMP280;12394;42.692;23.314;2023-04-15T03:53:57;94353.94;;;7.21
24278;BMP280;12394;42.692;23.314;2023-04-15T03:56:23;94355.41;;;7.19
24278;BMP280;12394;42.692;23.314;2023-04-15T03:58:49;94337.25;;;7.11
24278;BMP280;12394;42.692;23.314;2023-04-15T04:01:14;94347.22;;;7.31
24278;BMP280;12394;42.692;23.314;2023-04-15T04:03:40;94343.50;;;7.25
24278;BMP280;12394;42.692;23.314;2023-04-15T04:06:06;94349.47;;;7.22
24278;BMP280;12394;42.692;23.314;2023-04-15T04:08:32;94345.78;;;7.15
24278;BMP280;12394;42.692;23.314;2023-04-15T04:10:57;94342.78;;;7.13
24278;BMP280;12394;42.692;23.314;2023-04-15T04:13:23;94346.13;;;7.21
24278;BMP280;12394;42.692;23.314;2023-04-15T04:15:48;94349.06;;;7.23
24278;BMP280;12394;42.692;23.314;2023-04-15T04:18:13;94316.81;;;7.06
24278;BMP280;12394;42.692;23.314;2023-04-15T04:20:39;94337.88;;;7.33
24278;BMP280;12394;42.692;23.314;2023-04-15T04:23:04;94354.22;;;7.37
24278;BMP280;12394;42.692;23.314;2023-04-15T04:25:30;94349.31;;;7.50
24278;BMP280;12394;42.692;23.314;2023-04-15T04:27:55;94352.41;;;7.31
24278;BMP280;12394;42.692;23.314;2023-04-15T04:30:20;94358.34;;;7.31
24278;BMP280;12394;42.692;23.314;2023-04-15T04:32:46;94380.59;;;7.43
24278;BMP280;12394;42.692;23.314;2023-04-15T04:35:11;94359.72;;;7.50
24278;BMP280;12394;42.692;23.314;2023-04-15T04:37:37;94356.06;;;7.44
24278;BMP280;12394;42.692;23.314;2023-04-15T04:40:02;94364.19;;;7.53
24278;BMP280;12394;42.692;23.314;2023-04-15T04:42:28;94351.91;;;7.50
24278;BMP280;12394;42.692;23.314;2023-04-15T04:44:54;94351.94;;;7.46
24278;BMP280;12394;42.692;23.314;2023-04-15T04:47:19;94367.88;;;7.55
24278;BMP280;12394;42.692;23.314;2023-04-15T04:49:45;94371.56;;;7.65
24278;BMP280;12394;42.692;23.314;2023-04-15T04:52:10;94378.22;;;7.77
24278;BMP280;12394;42.692;23.314;2023-04-15T04:54:37;94361.41;;;7.81
24278;BMP280;12394;42.692;23.314;2023-04-15T04:57:02;94376.59;;;7.97
24278;BMP280;12394;42.692;23.314;2023-04-15T04:59:27;94385.06;;;8.04
24278;BMP280;12394;42.692;23.314;2023-04-15T05:01:53;94383.50;;;8.18
24278;BMP280;12394;42.692;23.314;2023-04-15T05:04:18;94386.81;;;8.25
24278;BMP280;12394;42.692;23.314;2023-04-15T05:06:44;94391.25;;;8.32
24278;BMP280;12394;42.692;23.314;2023-04-15T05:09:09;94395.72;;;8.35
24278;BMP280;12394;42.692;23.314;2023-04-15T05:11:34;94401.56;;;8.46
24278;BMP280;12394;42.692;23.314;2023-04-15T05:14:00;94406.72;;;8.53
24278;BMP280;12394;42.692;23.314;2023-04-15T05:16:26;94405.97;;;8.56
24278;BMP280;12394;42.692;23.314;2023-04-15T05:18:52;94425.16;;;8.76
24278;BMP280;12394;42.692;23.314;2023-04-15T05:21:17;94427.78;;;8.76
24278;BMP280;12394;42.692;23.314;2023-04-15T05:23:43;94428.41;;;8.87
24278;BMP280;12394;42.692;23.314;2023-04-15T05:26:08;94418.31;;;8.93
24278;BMP280;12394;42.692;23.314;2023-04-15T05:28:34;94421.19;;;9.02
24278;BMP280;12394;42.692;23.314;2023-04-15T05:31:00;94423.72;;;9.09
24278;BMP280;12394;42.692;23.314;2023-04-15T05:33:25;94417.31;;;9.17
24278;BMP280;12394;42.692;23.314;2023-04-15T05:35:51;94413.38;;;9.36
24278;BMP280;12394;42.692;23.314;2023-04-15T05:38:17;94406.41;;;9.26
24278;BMP280;12394;42.692;23.314;2023-04-15T05:40:42;94406.38;;;9.29
24278;BMP280;12394;42.692;23.314;2023-04-15T05:43:07;94408.19;;;9.32
24278;BMP280;12394;42.692;23.314;2023-04-15T05:45:33;94413.31;;;9.43
24278;BMP280;12394;42.692;23.314;2023-04-15T05:47:58;94410.97;;;9.52
24278;BMP280;12394;42.692;23.314;2023-04-15T05:50:24;94420.13;;;9.64
24278;BMP280;12394;42.692;23.314;2023-04-15T05:52:49;94405.34;;;9.54
24278;BMP280;12394;42.692;23.314;2023-04-15T05:55:14;94430.56;;;9.67
24278;BMP280;12394;42.692;23.314;2023-04-15T05:57:40;94427.28;;;9.60
24278;BMP280;12394;42.692;23.314;2023-04-15T06:00:06;94432.72;;;9.72
24278;BMP280;12394;42.692;23.314;2023-04-15T06:02:31;94437.44;;;9.85
24278;BMP280;12394;42.692;23.314;2023-04-15T06:04:57;94424.31;;;9.88
24278;BMP280;12394;42.692;23.314;2023-04-15T06:07:23;94432.22;;;9.85
24278;BMP280;12394;42.692;23.314;2023-04-15T06:09:48;94437.94;;;10.03
24278;BMP280;12394;42.692;23.314;2023-04-15T06:12:14;94434.72;;;10.22
24278;BMP280;12394;42.692;23.314;2023-04-15T06:14:40;94430.59;;;10.48
24278;BMP280;12394;42.692;23.314;2023-04-15T06:17:06;94435.78;;;10.51
24278;BMP280;12394;42.692;23.314;2023-04-15T06:19:32;94446.09;;;10.62
24278;BMP280;12394;42.692;23.314;2023-04-15T06:21:57;94450.38;;;10.72
24278;BMP280;12394;42.692;23.314;2023-04-15T06:24:23;94441.25;;;10.84
24278;BMP280;12394;42.692;23.314;2023-04-15T06:26:48;94449.25;;;10.96
24278;BMP280;12394;42.692;23.314;2023-04-15T06:29:14;94454.94;;;11.14
24278;BMP280;12394;42.692;23.314;2023-04-15T06:31:40;94435.47;;;11.15
24278;BMP280;12394;42.692;23.314;2023-04-15T06:34:05;94455.25;;;11.40
24278;BMP280;12394;42.692;23.314;2023-04-15T06:36:31;94462.91;;;11.50
24278;BMP280;12394;42.692;23.314;2023-04-15T06:38:57;94476.22;;;11.79
24278;BMP280;12394;42.692;23.314;2023-04-15T06:41:22;94462.69;;;12.00
24278;BMP280;12394;42.692;23.314;2023-04-15T06:43:48;94462.00;;;12.16
24278;BMP280;12394;42.692;23.314;2023-04-15T06:46:13;94470.66;;;12.49
24278;BMP280;12394;42.692;23.314;2023-04-15T06:48:38;94468.88;;;12.62
24278;BMP280;12394;42.692;23.314;2023-04-15T06:51:04;94473.53;;;13.03
24278;BMP280;12394;42.692;23.314;2023-04-15T06:53:29;94454.31;;;13.22
24278;BMP280;12394;42.692;23.314;2023-04-15T06:55:55;94474.44;;;13.58
24278;BMP280;12394;42.692;23.314;2023-04-15T06:58:20;94476.97;;;14.28
24278;BMP280;12394;42.692;23.314;2023-04-15T07:00:46;94467.38;;;15.32
24278;BMP280;12394;42.692;23.314;2023-04-15T07:03:12;94464.25;;;16.73
24278;BMP280;12394;42.692;23.314;2023-04-15T07:05:38;94464.53;;;17.60
24278;BMP280;12394;42.692;23.314;2023-04-15T07:08:04;94478.03;;;18.32
24278;BMP280;12394;42.692;23.314;2023-04-15T07:10:29;94473.78;;;18.76
24278;BMP280;12394;42.692;23.314;2023-04-15T07:12:55;94458.00;;;19.05
24278;BMP280;12394;42.692;23.314;2023-04-15T07:15:21;94465.16;;;19.38
24278;BMP280;12394;42.692;23.314;2023-04-15T07:17:47;94478.16;;;19.74
24278;BMP280;12394;42.692;23.314;2023-04-15T07:20:13;94475.06;;;20.05
24278;BMP280;12394;42.692;23.314;2023-04-15T07:22:38;94475.59;;;20.24
24278;BMP280;12394;42.692;23.314;2023-04-15T07:25:04;94473.97;;;20.76
24278;BMP280;12394;42.692;23.314;2023-04-15T07:27:30;94480.75;;;21.12
24278;BMP280;12394;42.692;23.314;2023-04-15T07:29:56;94475.53;;;21.84
24278;BMP280;12394;42.692;23.314;2023-04-15T07:32:21;94483.31;;;21.87
24278;BMP280;12394;42.692;23.314;2023-04-15T07:34:47;94471.66;;;21.18
24278;BMP280;12394;42.692;23.314;2023-04-15T07:37:14;94480.44;;;21.45
24278;BMP280;12394;42.692;23.314;2023-04-15T07:39:39;94479.63;;;22.05
24278;BMP280;12394;42.692;23.314;2023-04-15T07:42:05;94475.50;;;22.67
24278;BMP280;12394;42.692;23.314;2023-04-15T07:44:30;94462.16;;;23.03
24278;BMP280;12394;42.692;23.314;2023-04-15T07:46:56;94465.22;;;23.39
24278;BMP280;12394;42.692;23.314;2023-04-15T07:49:21;94473.66;;;23.97
24278;BMP280;12394;42.692;23.314;2023-04-15T07:51:47;94483.91;;;24.37
24278;BMP280;12394;42.692;23.314;2023-04-15T07:54:14;94475.63;;;24.41
24278;BMP280;12394;42.692;23.314;2023-04-15T07:56:39;94489.94;;;24.15
24278;BMP280;12394;42.692;23.314;2023-04-15T07:59:05;94495.28;;;24.10
24278;BMP280;12394;42.692;23.314;2023-04-15T08:01:31;94492.66;;;24.88
24278;BMP280;12394;42.692;23.314;2023-04-15T08:03:58;94490.47;;;24.69
24278;BMP280;12394;42.692;23.314;2023-04-15T08:06:23;94492.25;;;25.41
24278;BMP280;12394;42.692;23.314;2023-04-15T08:08:48;94495.19;;;25.32
24278;BMP280;12394;42.692;23.314;2023-04-15T08:11:14;94485.41;;;25.98
24278;BMP280;12394;42.692;23.314;2023-04-15T08:13:39;94488.75;;;26.75
24278;BMP280;12394;42.692;23.314;2023-04-15T08:16:16;94495.06;;;27.07
24278;BMP280;12394;42.692;23.314;2023-04-15T08:18:46;94494.66;;;27.83
24278;BMP280;12394;42.692;23.314;2023-04-15T08:21:12;94498.22;;;27.73
24278;BMP280;12394;42.692;23.314;2023-04-15T08:23:38;94481.50;;;28.17
24278;BMP280;12394;42.692;23.314;2023-04-15T08:26:04;94487.69;;;28.89
24278;BMP280;12394;42.692;23.314;2023-04-15T08:28:29;94482.75;;;29.06
24278;BMP280;12394;42.692;23.314;2023-04-15T08:30:55;94487.50;;;28.55
24278;BMP280;12394;42.692;23.314;2023-04-15T08:33:21;94490.75;;;27.84
24278;BMP280;12394;42.692;23.314;2023-04-15T08:35:48;94482.16;;;27.86
24278;BMP280;12394;42.692;23.314;2023-04-15T08:38:13;94479.09;;;28.78
24278;BMP280;12394;42.692;23.314;2023-04-15T08:40:43;94476.91;;;28.76
24278;BMP280;12394;42.692;23.314;2023-04-15T08:43:18;94473.22;;;28.15
24278;BMP280;12394;42.692;23.314;2023-04-15T08:45:45;94453.66;;;26.97
24278;BMP280;12394;42.692;23.314;2023-04-15T08:48:14;94463.38;;;26.16
24278;BMP280;12394;42.692;23.314;2023-04-15T08:50:41;94465.69;;;26.85
24278;BMP280;12394;42.692;23.314;2023-04-15T08:53:08;94472.56;;;26.86
24278;BMP280;12394;42.692;23.314;2023-04-15T08:55:35;94465.13;;;27.40
24278;BMP280;12394;42.692;23.314;2023-04-15T08:58:03;94456.41;;;28.99
24278;BMP280;12394;42.692;23.314;2023-04-15T09:00:30;94464.34;;;30.04
24278;BMP280;12394;42.692;23.314;2023-04-15T09:02:55;94458.47;;;30.97
24278;BMP280;12394;42.692;23.314;2023-04-15T09:05:21;94450.00;;;31.28
24278;BMP280;12394;42.692;23.314;2023-04-15T09:07:47;94456.41;;;32.05
24278;BMP280;12394;42.692;23.314;2023-04-15T09:10:14;94449.75;;;33.04
24278;BMP280;12394;42.692;23.314;2023-04-15T09:12:39;94453.00;;;33.11
24278;BMP280;12394;42.692;23.314;2023-04-15T09:15:07;94440.78;;;32.34
24278;BMP280;12394;42.692;23.314;2023-04-15T09:17:41;94438.22;;;32.96
24278;BMP280;12394;42.692;23.314;2023-04-15T09:20:11;94438.41;;;33.53
24278;BMP280;12394;42.692;23.314;2023-04-15T09:22:39;94433.31;;;33.10
24278;BMP280;12394;42.692;23.314;2023-04-15T09:28:00;94426.00;;;32.65
24278;BMP280;12394;42.692;23.314;2023-04-15T09:30:29;94432.16;;;30.69
24278;BMP280;12394;42.692;23.314;2023-04-15T09:32:58;94433.81;;;29.89
24278;BMP280;12394;42.692;23.314;2023-04-15T09:35:25;94434.84;;;29.12
24278;BMP280;12394;42.692;23.314;2023-04-15T09:37:51;94439.34;;;29.70
24278;BMP280;12394;42.692;23.314;2023-04-15T09:43:01;94445.75;;;29.20
24278;BMP280;12394;42.692;23.314;2023-04-15T09:45:27;94432.03;;;28.52
24278;BMP280;12394;42.692;23.314;2023-04-15T09:47:53;94434.34;;;27.79
24278;BMP280;12394;42.692;23.314;2023-04-15T09:50:19;94435.78;;;27.42
24278;BMP280;12394;42.692;23.314;2023-04-15T09:52:45;94422.81;;;26.79
24278;BMP280;12394;42.692;23.314;2023-04-15T09:55:12;94420.16;;;26.79
24278;BMP280;12394;42.692;23.314;2023-04-15T09:57:39;94429.81;;;25.98
24278;BMP280;12394;42.692;23.314;2023-04-15T10:00:09;94412.03;;;25.08
24278;BMP280;12394;42.692;23.314;2023-04-15T10:02:36;94428.44;;;24.60
24278;BMP280;12394;42.692;23.314;2023-04-15T10:05:03;94435.00;;;24.09
24278;BMP280;12394;42.692;23.314;2023-04-15T10:07:28;94430.34;;;23.59
24278;BMP280;12394;42.692;23.314;2023-04-15T10:09:55;94434.56;;;24.16
24278;BMP280;12394;42.692;23.314;2023-04-15T10:12:22;94425.56;;;24.52
24278;BMP280;12394;42.692;23.314;2023-04-15T10:14:52;94425.47;;;25.49
24278;BMP280;12394;42.692;23.314;2023-04-15T10:17:21;94416.63;;;26.90
24278;BMP280;12394;42.692;23.314;2023-04-15T10:19:47;94408.63;;;27.27
24278;BMP280;12394;42.692;23.314;2023-04-15T10:22:14;94415.19;;;26.89
24278;BMP280;12394;42.692;23.314;2023-04-15T10:24:39;94411.97;;;26.90
24278;BMP280;12394;42.692;23.314;2023-04-15T10:27:05;94416.28;;;27.79
24278;BMP280;12394;42.692;23.314;2023-04-15T10:29:31;94402.13;;;27.92
24278;BMP280;12394;42.692;23.314;2023-04-15T10:31:58;94412.13;;;27.60
24278;BMP280;12394;42.692;23.314;2023-04-15T10:34:24;94403.75;;;27.44
24278;BMP280;12394;42.692;23.314;2023-04-15T10:36:50;94403.72;;;27.50
24278;BMP280;12394;42.692;23.314;2023-04-15T10:39:38;94395.81;;;26.47
24278;BMP280;12394;42.692;23.314;2023-04-15T10:42:07;94389.44;;;26.75
24278;BMP280;12394;42.692;23.314;2023-04-15T10:44:35;94406.53;;;27.39
24278;BMP280;12394;42.692;23.314;2023-04-15T10:47:05;94400.94;;;26.45
24278;BMP280;12394;42.692;23.314;2023-04-15T10:49:42;94390.56;;;25.71
24278;BMP280;12394;42.692;23.314;2023-04-15T10:52:09;94388.38;;;25.17
24278;BMP280;12394;42.692;23.314;2023-04-15T10:54:34;94378.03;;;24.80
24278;BMP280;12394;42.692;23.314;2023-04-15T10:59:32;94383.28;;;24.28
24278;BMP280;12394;42.692;23.314;2023-04-15T11:02:01;94371.06;;;24.66
24278;BMP280;12394;42.692;23.314;2023-04-15T11:04:55;94376.09;;;24.98
24278;BMP280;12394;42.692;23.314;2023-04-15T11:12:46;94379.28;;;24.74
24278;BMP280;12394;42.692;23.314;2023-04-15T11:17:54;94375.75;;;23.93
24278;BMP280;12394;42.692;23.314;2023-04-15T11:20:20;94368.94;;;23.81
24278;BMP280;12394;42.692;23.314;2023-04-15T11:22:50;94365.44;;;23.36
24278;BMP280;12394;42.692;23.314;2023-04-15T11:25:30;94373.44;;;22.66
24278;BMP280;12394;42.692;23.314;2023-04-15T11:27:55;94363.34;;;22.02
24278;BMP280;12394;42.692;23.314;2023-04-15T11:30:23;94370.66;;;22.07
24278;BMP280;12394;42.692;23.314;2023-04-15T11:32:59;94373.34;;;22.12
24278;BMP280;12394;42.692;23.314;2023-04-15T11:35:25;94343.69;;;21.68
24278;BMP280;12394;42.692;23.314;2023-04-15T11:37:51;94367.41;;;21.66
24278;BMP280;12394;42.692;23.314;2023-04-15T11:40:22;94371.44;;;21.56
24278;BMP280;12394;42.692;23.314;2023-04-15T11:43:09;94338.59;;;21.64
24278;BMP280;12394;42.692;23.314;2023-04-15T11:45:36;94357.19;;;21.90
24278;BMP280;12394;42.692;23.314;2023-04-15T11:48:09;94362.09;;;21.66
24278;BMP280;12394;42.692;23.314;2023-04-15T11:50:36;94354.16;;;21.77
24278;BMP280;12394;42.692;23.314;2023-04-15T11:53:05;94350.16;;;21.36
24278;BMP280;12394;42.692;23.314;2023-04-15T11:55:43;94365.63;;;21.32
24278;BMP280;12394;42.692;23.314;2023-04-15T11:58:17;94353.63;;;21.16
24278;BMP280;12394;42.692;23.314;2023-04-15T12:03:28;94353.41;;;21.45
24278;BMP280;12394;42.692;23.314;2023-04-15T12:14:10;94351.72;;;21.22
24278;BMP280;12394;42.692;23.314;2023-04-15T12:16:41;94344.53;;;21.28
24278;BMP280;12394;42.692;23.314;2023-04-15T12:19:12;94361.59;;;20.96
24278;BMP280;12394;42.692;23.314;2023-04-15T12:21:40;94352.53;;;20.67
24278;BMP280;12394;42.692;23.314;2023-04-15T12:24:08;94358.44;;;20.36
24278;BMP280;12394;42.692;23.314;2023-04-15T12:26:51;94359.72;;;20.26
24278;BMP280;12394;42.692;23.314;2023-04-15T12:29:17;94362.03;;;20.19
24278;BMP280;12394;42.692;23.314;2023-04-15T12:31:50;94353.31;;;20.18
24278;BMP280;12394;42.692;23.314;2023-04-15T12:34:16;94360.31;;;20.01
24278;BMP280;12394;42.692;23.314;2023-04-15T12:36:42;94353.69;;;19.62
24278;BMP280;12394;42.692;23.314;2023-04-15T12:39:08;94349.81;;;19.63
24278;BMP280;12394;42.692;23.314;2023-04-15T12:41:33;94351.56;;;19.51
24278;BMP280;12394;42.692;23.314;2023-04-15T12:43:59;94365.84;;;19.68
24278;BMP280;12394;42.692;23.314;2023-04-15T12:46:25;94367.94;;;19.79
24278;BMP280;12394;42.692;23.314;2023-04-15T12:48:52;94366.13;;;19.85
24278;BMP280;12394;42.692;23.314;2023-04-15T12:51:18;94362.44;;;19.97
24278;BMP280;12394;42.692;23.314;2023-04-15T12:53:43;94360.94;;;20.11
24278;BMP280;12394;42.692;23.314;2023-04-15T12:56:09;94375.84;;;20.37
24278;BMP280;12394;42.692;23.314;2023-04-15T12:58:34;94369.44;;;20.29
24278;BMP280;12394;42.692;23.314;2023-04-15T13:01:00;94365.31;;;20.28
24278;BMP280;12394;42.692;23.314;2023-04-15T13:03:25;94378.63;;;19.99
24278;BMP280;12394;42.692;23.314;2023-04-15T13:05:51;94350.19;;;19.85
24278;BMP280;12394;42.692;23.314;2023-04-15T13:08:17;94365.53;;;19.95
24278;BMP280;12394;42.692;23.314;2023-04-15T13:10:42;94359.75;;;20.12
24278;BMP280;12394;42.692;23.314;2023-04-15T13:13:08;94363.44;;;19.99
24278;BMP280;12394;42.692;23.314;2023-04-15T13:15:34;94365.81;;;20.12
24278;BMP280;12394;42.692;23.314;2023-04-15T13:17:59;94363.59;;;20.25
24278;BMP280;12394;42.692;23.314;2023-04-15T13:20:25;94370.94;;;20.16
24278;BMP280;12394;42.692;23.314;2023-04-15T13:22:52;94362.47;;;20.17
24278;BMP280;12394;42.692;23.314;2023-04-15T13:25:17;94363.84;;;20.27
24278;BMP280;12394;42.692;23.314;2023-04-15T13:27:43;94358.50;;;20.42
24278;BMP280;12394;42.692;23.314;2023-04-15T13:30:08;94352.38;;;20.36
24278;BMP280;12394;42.692;23.314;2023-04-15T13:32:34;94356.97;;;20.35
24278;BMP280;12394;42.692;23.314;2023-04-15T13:34:59;94354.31;;;20.35
24278;BMP280;12394;42.692;23.314;2023-04-15T13:37:26;94358.00;;;20.58
24278;BMP280;12394;42.692;23.314;2023-04-15T13:39:52;94358.19;;;20.34
24278;BMP280;12394;42.692;23.314;2023-04-15T13:42:18;94357.66;;;20.16
24278;BMP280;12394;42.692;23.314;2023-04-15T13:44:43;94360.44;;;20.27
24278;BMP280;12394;42.692;23.314;2023-04-15T13:47:08;94354.50;;;20.32
24278;BMP280;12394;42.692;23.314;2023-04-15T13:49:34;94353.84;;;20.37
24278;BMP280;12394;42.692;23.314;2023-04-15T13:51:59;94347.31;;;20.53
24278;BMP280;12394;42.692;23.314;2023-04-15T13:54:24;94349.47;;;20.54
24278;BMP280;12394;42.692;23.314;2023-04-15T13:56:51;94345.72;;;20.61
24278;BMP280;12394;42.692;23.314;2023-04-15T13:59:16;94335.47;;;20.54
24278;BMP280;12394;42.692;23.314;2023-04-15T14:01:42;94342.91;;;20.50
24278;BMP280;12394;42.692;23.314;2023-04-15T14:04:07;94342.16;;;20.49
24278;BMP280;12394;42.692;23.314;2023-04-15T14:06:33;94339.25;;;20.47
24278;BMP280;12394;42.692;23.314;2023-04-15T14:08:58;94338.78;;;20.69
24278;BMP280;12394;42.692;23.314;2023-04-15T14:11:24;94332.63;;;20.57
24278;BMP280;12394;42.692;23.314;2023-04-15T14:13:49;94335.88;;;20.47
24278;BMP280;12394;42.692;23.314;2023-04-15T14:16:15;94309.09;;;20.15
24278;BMP280;12394;42.692;23.314;2023-04-15T14:18:42;94338.78;;;20.14
24278;BMP280;12394;42.692;23.314;2023-04-15T14:21:08;94322.31;;;19.95
24278;BMP280;12394;42.692;23.314;2023-04-15T14:23:33;94338.66;;;19.88
24278;BMP280;12394;42.692;23.314;2023-04-15T14:25:59;94344.19;;;20.05
24278;BMP280;12394;42.692;23.314;2023-04-15T14:28:24;94341.19;;;20.12